Time;durP1;ratioP1;P1;durP2;ratioP2;P2;SDS_P1;SDS_P2;PMS_P1;PMS_P2;Temp;Humidity;BMP_temperature;BMP_pressure;BME280_temperature;BME280_humidity;BME280_pressure;Samples;Min_cycle;Max_cycle;Signal;HPM_P1;HPM_P2
2023/03/25 00:00:51;;;;;;;;;;;9.50;99.90;;;;;;5045520;28;19921;-70
2023/03/25 00:03:21;;;;;;;;;;;9.40;99.90;;;;;;5045320;28;20008;-70
2023/03/25 00:05:47;;;;;;;;;;;9.40;99.90;;;;;;5027173;28;20140;-70
2023/03/25 00:08:14;;;;;;;;;;;9.30;99.90;;;;;;5025355;28;19957;-70
2023/03/25 00:10:41;;;;;;;;;;;9.30;99.90;;;;;;5025097;28;19925;-70
2023/03/25 00:13:07;;;;;;;;;;;9.20;99.90;;;;;;5024935;28;19921;-72
2023/03/25 00:15:34;;;;;;;;;;;9.10;99.90;;;;;;5025391;28;20300;-71
2023/03/25 00:18:01;;;;;;;;;;;9.20;99.90;;;;;;5025299;28;19928;-70
2023/03/25 00:20:31;;;;;;;;;;;9.10;99.90;;;;;;5024255;28;19975;-71
2023/03/25 00:22:57;;;;;;;;;;;9.10;99.90;;;;;;5024794;28;20259;-70
2023/03/25 00:25:31;;;;;;;;;;;9.00;99.90;;;;;;5024421;28;19953;-70
2023/03/25 00:27:57;;;;;;;;;;;8.90;99.90;;;;;;5025009;28;20117;-69
2023/03/25 00:30:24;;;;;;;;;;;8.90;99.90;;;;;;5025180;28;19992;-70
2023/03/25 00:32:51;;;;;;;;;;;8.80;99.90;;;;;;5025022;28;19928;-70
2023/03/25 00:35:19;;;;;;;;;;;8.80;99.90;;;;;;5023223;28;19925;-70
2023/03/25 00:37:58;;;;;;;;;;;8.70;99.90;;;;;;5024552;28;19928;-70
2023/03/25 00:40:33;;;;;;;;;;;8.60;99.90;;;;;;5024094;28;19992;-70
2023/03/25 00:43:00;;;;;;;;;;;8.60;99.90;;;;;;5024846;28;19993;-70
2023/03/25 00:45:27;;;;;;;;;;;8.50;99.90;;;;;;5023470;28;19993;-70
2023/03/25 00:47:56;;;;;;;;;;;8.40;99.90;;;;;;5024136;28;20132;-71
2023/03/25 00:50:23;;;;;;;;;;;8.40;99.90;;;;;;5024448;28;19928;-70
2023/03/25 00:52:52;;;;;;;;;;;8.40;99.90;;;;;;5024294;28;20237;-69
2023/03/25 00:55:20;;;;;;;;;;;8.40;99.90;;;;;;5023602;28;19921;-70
2023/03/25 00:57:47;;;;;;;;;;;8.40;99.90;;;;;;5024053;28;19928;-70
2023/03/25 01:00:15;;;;;;;;;;;8.30;99.90;;;;;;5024355;28;19922;-70
2023/03/25 01:02:42;;;;;;;;;;;8.30;99.90;;;;;;5024435;28;19953;-69
2023/03/25 01:05:10;;;;;;;;;;;8.30;99.90;;;;;;5022949;28;20217;-70
2023/03/25 01:07:37;;;;;;;;;;;8.20;99.90;;;;;;5004704;28;19985;-71
2023/03/25 01:10:07;;;;;;;;;;;8.20;99.90;;;;;;5003888;28;19921;-70
2023/03/25 01:12:34;;;;;;;;;;;8.20;99.90;;;;;;5004473;28;19928;-71
2023/03/25 01:15:00;;;;;;;;;;;8.20;99.90;;;;;;5004772;28;19922;-70
2023/03/25 01:17:27;;;;;;;;;;;8.20;99.90;;;;;;5004135;28;20229;-70
2023/03/25 01:19:53;;;;;;;;;;;8.30;99.90;;;;;;5022686;28;19984;-70
2023/03/25 01:22:20;;;;;;;;;;;8.30;99.90;;;;;;5024141;28;19949;-70
2023/03/25 01:24:47;;;;;;;;;;;8.30;99.90;;;;;;5023785;28;20164;-70
2023/03/25 01:27:15;;;;;;;;;;;8.30;99.90;;;;;;5023688;28;20024;-69
2023/03/25 01:29:41;;;;;;;;;;;8.30;99.90;;;;;;5023628;28;20196;-70
2023/03/25 01:32:08;;;;;;;;;;;8.30;99.90;;;;;;5023800;28;19922;-69
2023/03/25 01:34:37;;;;;;;;;;;8.30;99.90;;;;;;5023216;28;20116;-70
2023/03/25 01:37:04;;;;;;;;;;;8.30;99.90;;;;;;5023793;28;19921;-70
2023/03/25 01:39:30;;;;;;;;;;;8.20;99.90;;;;;;5024053;28;19950;-70
2023/03/25 01:41:57;;;;;;;;;;;8.20;99.90;;;;;;5023559;28;20264;-70
2023/03/25 01:44:43;;;;;;;;;;;8.30;99.90;;;;;;5023448;28;19925;-71
2023/03/25 01:47:12;;;;;;;;;;;8.20;99.90;;;;;;5022579;28;19993;-70
2023/03/25 01:49:43;;;;;;;;;;;8.20;99.90;;;;;;5023271;28;19921;-69
2023/03/25 01:52:12;;;;;;;;;;;8.20;99.90;;;;;;5023818;28;19929;-70
2023/03/25 01:54:39;;;;;;;;;;;8.20;99.90;;;;;;5023892;28;19922;-70
2023/03/25 01:57:06;;;;;;;;;;;8.20;99.90;;;;;;5023600;28;19928;-70
2023/03/25 01:59:33;;;;;;;;;;;8.20;99.90;;;;;;5023751;28;20112;-69
2023/03/25 02:02:02;;;;;;;;;;;8.20;99.90;;;;;;5023476;28;19921;-70
2023/03/25 02:04:37;;;;;;;;;;;8.10;99.90;;;;;;5023340;28;19922;-70
2023/03/25 02:07:07;;;;;;;;;;;8.10;99.90;;;;;;5023234;28;19921;-70
2023/03/25 02:09:33;;;;;;;;;;;8.10;99.90;;;;;;5023386;28;19928;-70
2023/03/25 02:12:00;;;;;;;;;;;8.10;99.90;;;;;;5023532;28;20209;-71
2023/03/25 02:14:28;;;;;;;;;;;8.10;99.90;;;;;;5023535;28;19985;-70
2023/03/25 02:17:00;;;;;;;;;;;8.00;99.90;;;;;;5023038;28;19921;-70
2023/03/25 02:19:47;;;;;;;;;;;8.00;99.90;;;;;;5023535;28;19963;-70
2023/03/25 02:22:36;;;;;;;;;;;8.00;99.90;;;;;;5023308;28;19922;-70
2023/03/25 02:25:14;;;;;;;;;;;8.00;99.90;;;;;;5003603;28;20209;-70
2023/03/25 02:27:45;;;;;;;;;;;8.00;99.90;;;;;;5003345;28;19922;-70
2023/03/25 02:30:28;;;;;;;;;;;8.00;99.90;;;;;;5003897;28;19985;-71
2023/03/25 02:33:01;;;;;;;;;;;8.00;99.90;;;;;;5003793;28;19921;-69
2023/03/25 02:35:35;;;;;;;;;;;7.90;99.90;;;;;;5003559;28;19928;-70
2023/03/25 02:38:17;;;;;;;;;;;7.90;99.90;;;;;;5003567;28;20265;-70
2023/03/25 02:40:46;;;;;;;;;;;7.90;99.90;;;;;;5014234;28;19928;-70
2023/03/25 02:43:16;;;;;;;;;;;7.90;99.90;;;;;;5022946;28;20227;-71
2023/03/25 02:45:45;;;;;;;;;;;7.80;99.90;;;;;;5022848;28;19936;-70
2023/03/25 02:48:14;;;;;;;;;;;7.80;99.90;;;;;;5022875;28;19922;-70
2023/03/25 02:50:43;;;;;;;;;;;7.80;99.90;;;;;;5023273;28;19929;-70
2023/03/25 02:53:11;;;;;;;;;;;7.70;99.90;;;;;;5023142;28;19921;-70
2023/03/25 02:55:46;;;;;;;;;;;7.70;99.90;;;;;;5022584;28;19921;-71
2023/03/25 02:58:15;;;;;;;;;;;7.70;99.90;;;;;;5023209;28;19925;-70
2023/03/25 03:00:43;;;;;;;;;;;7.70;99.90;;;;;;5023114;28;20093;-70
2023/03/25 03:03:09;;;;;;;;;;;7.60;99.90;;;;;;5026385;28;20119;-70
2023/03/25 03:05:37;;;;;;;;;;;7.60;99.90;;;;;;5026113;28;20105;-70
2023/03/25 03:08:13;;;;;;;;;;;7.60;99.90;;;;;;5026627;28;19985;-70
2023/03/25 03:10:43;;;;;;;;;;;7.60;99.90;;;;;;5026627;28;20112;-70
2023/03/25 03:13:17;;;;;;;;;;;7.60;99.90;;;;;;5026454;28;19921;-70
2023/03/25 03:15:46;;;;;;;;;;;7.60;99.90;;;;;;5026202;28;19940;-70
2023/03/25 03:18:18;;;;;;;;;;;7.60;99.90;;;;;;5026487;28;20108;-70
2023/03/25 03:20:48;;;;;;;;;;;7.60;99.90;;;;;;5026368;28;19921;-70
2023/03/25 03:23:22;;;;;;;;;;;7.60;99.90;;;;;;5026238;28;19929;-71
2023/03/25 03:25:51;;;;;;;;;;;7.60;99.90;;;;;;5025853;28;19922;-70
2023/03/25 03:28:23;;;;;;;;;;;7.60;99.90;;;;;;5025388;28;19921;-70
2023/03/25 03:30:53;;;;;;;;;;;7.60;99.90;;;;;;5026397;28;19961;-70
2023/03/25 03:33:24;;;;;;;;;;;7.60;99.90;;;;;;5026066;28;19925;-70
2023/03/25 03:35:56;;;;;;;;;;;7.60;99.90;;;;;;5025994;28;19957;-71
2023/03/25 03:38:25;;;;;;;;;;;7.60;99.90;;;;;;5025240;28;20209;-70
2023/03/25 03:40:55;;;;;;;;;;;7.60;99.90;;;;;;5025614;28;20124;-71
2023/03/25 03:43:25;;;;;;;;;;;7.60;99.90;;;;;;5025951;28;19922;-71
2023/03/25 03:45:52;;;;;;;;;;;7.50;99.90;;;;;;5025431;28;20205;-71
2023/03/25 03:48:22;;;;;;;;;;;7.50;99.90;;;;;;5025771;28;19922;-70
2023/03/25 03:50:50;;;;;;;;;;;7.50;99.90;;;;;;5025777;28;19922;-70
2023/03/25 03:53:20;;;;;;;;;;;7.40;99.90;;;;;;5025467;28;20209;-70
2023/03/25 03:55:49;;;;;;;;;;;7.40;99.90;;;;;;5025587;28;19992;-70
2023/03/25 03:58:21;;;;;;;;;;;7.30;99.90;;;;;;5025516;28;20235;-70
2023/03/25 04:00:51;;;;;;;;;;;7.20;99.90;;;;;;5025531;28;19945;-70
2023/03/25 04:03:23;;;;;;;;;;;7.20;99.90;;;;;;5025154;28;19921;-70
2023/03/25 04:05:52;;;;;;;;;;;7.00;99.90;;;;;;5025387;28;19928;-72
2023/03/25 04:08:25;;;;;;;;;;;6.90;99.90;;;;;;5025090;28;19921;-70
2023/03/25 04:10:53;;;;;;;;;;;6.80;99.90;;;;;;5025421;28;19926;-70
2023/03/25 04:13:20;;;;;;;;;;;6.80;99.90;;;;;;5024823;28;19921;-70
2023/03/25 04:15:49;;;;;;;;;;;6.80;99.90;;;;;;5025279;28;19921;-69
2023/03/25 04:18:16;;;;;;;;;;;6.70;99.90;;;;;;5025178;28;19921;-71
2023/03/25 04:20:48;;;;;;;;;;;6.70;99.90;;;;;;5025207;28;19929;-70
2023/03/25 04:23:15;;;;;;;;;;;6.70;99.90;;;;;;5025153;28;19928;-70
2023/03/25 04:25:42;;;;;;;;;;;6.70;99.90;;;;;;5025002;28;19925;-70
2023/03/25 04:28:08;;;;;;;;;;;6.70;99.90;;;;;;5025079;28;19988;-72
2023/03/25 04:30:36;;;;;;;;;;;6.70;99.90;;;;;;5025260;28;19989;-70
2023/03/25 04:33:04;;;;;;;;;;;6.70;99.90;;;;;;5025170;28;19960;-70
2023/03/25 04:35:31;;;;;;;;;;;6.70;99.90;;;;;;5025059;28;19984;-70
2023/03/25 04:37:58;;;;;;;;;;;6.80;99.90;;;;;;5024909;28;20467;-70
2023/03/25 04:40:25;;;;;;;;;;;6.80;99.90;;;;;;5024979;28;19989;-70
2023/03/25 04:42:55;;;;;;;;;;;6.70;99.90;;;;;;5024631;28;19921;-70
2023/03/25 04:45:24;;;;;;;;;;;6.70;99.90;;;;;;5025158;28;19925;-69
2023/03/25 04:47:52;;;;;;;;;;;6.70;99.90;;;;;;5024659;28;19922;-69
2023/03/25 04:50:22;;;;;;;;;;;6.60;99.90;;;;;;5024507;28;19921;-70
2023/03/25 04:52:49;;;;;;;;;;;6.60;99.90;;;;;;5024601;28;19927;-70
2023/03/25 04:55:18;;;;;;;;;;;6.60;99.90;;;;;;5024700;28;19922;-70
2023/03/25 04:57:45;;;;;;;;;;;6.60;99.90;;;;;;5024190;28;20221;-70
2023/03/25 05:00:13;;;;;;;;;;;6.60;99.90;;;;;;5024713;28;19999;-70
2023/03/25 05:02:44;;;;;;;;;;;6.60;99.90;;;;;;5024406;28;19921;-70
2023/03/25 05:05:17;;;;;;;;;;;6.50;99.90;;;;;;5024408;28;19921;-70
2023/03/25 05:07:48;;;;;;;;;;;6.60;99.90;;;;;;5024328;28;19921;-70
2023/03/25 05:10:15;;;;;;;;;;;6.60;99.90;;;;;;5024459;28;20129;-70
2023/03/25 05:12:42;;;;;;;;;;;6.60;99.90;;;;;;5024317;28;20167;-70
2023/03/25 05:15:10;;;;;;;;;;;6.60;99.90;;;;;;5023863;28;19922;-70
2023/03/25 05:17:36;;;;;;;;;;;6.60;99.90;;;;;;5024084;28;19952;-71
2023/03/25 05:20:05;;;;;;;;;;;6.60;99.90;;;;;;5023980;28;19921;-70
2023/03/25 05:22:31;;;;;;;;;;;6.60;99.90;;;;;;5024097;28;19922;-70
2023/03/25 05:25:01;;;;;;;;;;;6.60;99.90;;;;;;5023095;28;20284;-70
2023/03/25 05:27:29;;;;;;;;;;;6.60;99.90;;;;;;5023738;28;19929;-69
2023/03/25 05:29:57;;;;;;;;;;;6.60;99.90;;;;;;5024037;28;20028;-70
2023/03/25 05:32:24;;;;;;;;;;;6.60;99.90;;;;;;5023906;28;20028;-70
2023/03/25 05:34:52;;;;;;;;;;;6.60;99.90;;;;;;5024004;28;19925;-70
2023/03/25 05:37:18;;;;;;;;;;;6.60;99.90;;;;;;5023790;28;20205;-70
2023/03/25 05:39:45;;;;;;;;;;;6.50;99.90;;;;;;5024048;28;19964;-70
2023/03/25 05:42:13;;;;;;;;;;;6.60;99.90;;;;;;5023929;28;19963;-70
2023/03/25 05:44:45;;;;;;;;;;;6.50;99.90;;;;;;5024001;28;19922;-70
2023/03/25 05:47:15;;;;;;;;;;;6.50;99.90;;;;;;5022483;28;19929;-71
2023/03/25 05:49:42;;;;;;;;;;;6.50;99.90;;;;;;5024006;28;19921;-70
2023/03/25 05:52:10;;;;;;;;;;;6.50;99.90;;;;;;5023568;28;20273;-70
2023/03/25 05:54:37;;;;;;;;;;;6.50;99.90;;;;;;5023750;28;19985;-70
2023/03/25 05:57:04;;;;;;;;;;;6.50;99.90;;;;;;5023216;28;20005;-72
2023/03/25 05:59:32;;;;;;;;;;;6.50;99.90;;;;;;5023898;28;19928;-70
2023/03/25 06:01:59;;;;;;;;;;;6.50;99.90;;;;;;5023310;28;19977;-70
2023/03/25 06:04:25;;;;;;;;;;;6.50;99.90;;;;;;5023681;28;19925;-70
2023/03/25 06:06:52;;;;;;;;;;;6.50;99.90;;;;;;5034829;28;19988;-70
2023/03/25 06:09:19;;;;;;;;;;;6.60;99.90;;;;;;5043165;28;19957;-70
2023/03/25 06:11:52;;;;;;;;;;;6.60;99.90;;;;;;5043223;28;19992;-71
2023/03/25 06:14:19;;;;;;;;;;;6.70;99.90;;;;;;5043590;28;19921;-70
2023/03/25 06:16:48;;;;;;;;;;;6.80;99.90;;;;;;5043093;28;19925;-70
2023/03/25 06:19:17;;;;;;;;;;;6.80;99.90;;;;;;5030430;28;20206;-70
2023/03/25 06:21:48;;;;;;;;;;;6.80;99.90;;;;;;5014492;28;20236;-70
2023/03/25 06:24:14;;;;;;;;;;;6.90;99.90;;;;;;5023462;28;19921;-70
2023/03/25 06:26:41;;;;;;;;;;;7.00;99.90;;;;;;5023315;28;19956;-70
2023/03/25 06:29:08;;;;;;;;;;;7.00;99.90;;;;;;5023305;28;19927;-70
2023/03/25 06:31:35;;;;;;;;;;;7.10;99.90;;;;;;5023396;28;19928;-70
2023/03/25 06:34:03;;;;;;;;;;;7.10;99.90;;;;;;5022343;28;19968;-70
2023/03/25 06:36:30;;;;;;;;;;;7.20;99.90;;;;;;5024315;28;19928;-70
2023/03/25 06:38:57;;;;;;;;;;;7.20;99.90;;;;;;5027302;28;20001;-71
2023/03/25 06:41:24;;;;;;;;;;;7.20;99.90;;;;;;5027034;28;19921;-70
2023/03/25 06:43:52;;;;;;;;;;;7.20;99.90;;;;;;5026255;28;19931;-70
2023/03/25 06:46:18;;;;;;;;;;;7.20;99.90;;;;;;5026570;28;19960;-69
2023/03/25 06:48:45;;;;;;;;;;;7.20;99.90;;;;;;5027179;28;19984;-69
2023/03/25 06:51:13;;;;;;;;;;;7.20;99.90;;;;;;5026961;28;19980;-70
2023/03/25 06:53:40;;;;;;;;;;;7.30;99.90;;;;;;5026701;28;20209;-70
2023/03/25 06:56:07;;;;;;;;;;;7.20;99.90;;;;;;5026375;28;20132;-69
2023/03/25 06:58:34;;;;;;;;;;;7.20;99.90;;;;;;5026939;28;19928;-69
2023/03/25 07:01:04;;;;;;;;;;;7.20;99.90;;;;;;5026821;28;19928;-69
2023/03/25 07:03:31;;;;;;;;;;;7.10;99.90;;;;;;5026663;28;19990;-69
2023/03/25 07:05:58;;;;;;;;;;;7.10;99.90;;;;;;5026131;28;19967;-69
2023/03/25 07:08:26;;;;;;;;;;;7.00;99.90;;;;;;5026190;28;19992;-68
2023/03/25 07:10:53;;;;;;;;;;;7.00;99.90;;;;;;5025425;28;19988;-68
2023/03/25 07:13:20;;;;;;;;;;;7.00;99.90;;;;;;5026179;28;19992;-68
2023/03/25 07:15:46;;;;;;;;;;;7.00;99.90;;;;;;5023479;28;19944;-67
2023/03/25 07:18:13;;;;;;;;;;;7.00;99.90;;;;;;5025399;28;19953;-68
2023/03/25 07:20:41;;;;;;;;;;;7.00;99.90;;;;;;5026205;28;20275;-67
2023/03/25 07:23:08;;;;;;;;;;;7.10;99.90;;;;;;5026215;28;19922;-68
2023/03/25 07:25:37;;;;;;;;;;;7.10;99.90;;;;;;5024172;28;19989;-68
2023/03/25 07:28:05;;;;;;;;;;;7.20;99.90;;;;;;5025609;28;19922;-68
2023/03/25 07:30:32;;;;;;;;;;;7.20;99.90;;;;;;5024914;28;20213;-68
2023/03/25 07:32:58;;;;;;;;;;;7.30;99.90;;;;;;5026047;28;19992;-68
2023/03/25 07:35:25;;;;;;;;;;;7.30;99.90;;;;;;5026093;28;20168;-68
2023/03/25 07:37:52;;;;;;;;;;;7.40;99.90;;;;;;5025664;28;20213;-68
2023/03/25 07:40:18;;;;;;;;;;;7.50;99.90;;;;;;5026105;28;19992;-68
2023/03/25 07:42:46;;;;;;;;;;;7.60;99.90;;;;;;5025948;28;19984;-67
2023/03/25 07:45:13;;;;;;;;;;;7.60;99.90;;;;;;5025709;28;19922;-68
2023/03/25 07:47:40;;;;;;;;;;;7.70;99.90;;;;;;5024899;28;19984;-69
2023/03/25 07:50:07;;;;;;;;;;;7.80;99.90;;;;;;5026088;28;19984;-68
2023/03/25 07:52:34;;;;;;;;;;;7.90;99.90;;;;;;5025814;28;19964;-68
2023/03/25 07:55:01;;;;;;;;;;;8.00;99.90;;;;;;5025384;28;20206;-68
2023/03/25 07:57:28;;;;;;;;;;;8.10;99.90;;;;;;5025507;28;19988;-67
2023/03/25 07:59:56;;;;;;;;;;;8.10;99.90;;;;;;5025443;28;20284;-68
2023/03/25 08:02:22;;;;;;;;;;;8.10;99.90;;;;;;5025252;28;19984;-69
2023/03/25 08:04:49;;;;;;;;;;;8.20;99.90;;;;;;5025401;28;19921;-68
2023/03/25 08:07:15;;;;;;;;;;;8.10;99.90;;;;;;5025343;28;19984;-68
2023/03/25 08:09:42;;;;;;;;;;;8.20;99.90;;;;;;5025275;28;19992;-68
2023/03/25 08:12:09;;;;;;;;;;;8.20;99.90;;;;;;5025330;28;19993;-68
2023/03/25 08:14:35;;;;;;;;;;;8.30;99.90;;;;;;5025243;28;19921;-67
2023/03/25 08:17:04;;;;;;;;;;;8.40;99.90;;;;;;5024757;28;19922;-67
2023/03/25 08:19:30;;;;;;;;;;;8.40;99.90;;;;;;5025253;28;20173;-68
2023/03/25 08:21:57;;;;;;;;;;;8.50;99.90;;;;;;5024893;28;19928;-67
2023/03/25 08:24:28;;;;;;;;;;;8.50;99.90;;;;;;5024119;28;19980;-68
2023/03/25 08:26:55;;;;;;;;;;;8.50;99.90;;;;;;5024984;28;19956;-68
2023/03/25 08:29:23;;;;;;;;;;;8.60;99.90;;;;;;5024406;28;19968;-68
2023/03/25 08:31:51;;;;;;;;;;;8.50;99.90;;;;;;5023863;28;19928;-68
2023/03/25 08:34:22;;;;;;;;;;;8.50;99.90;;;;;;5024848;28;20094;-68
2023/03/25 08:36:49;;;;;;;;;;;8.40;99.90;;;;;;5024840;28;19930;-68
2023/03/25 08:39:16;;;;;;;;;;;8.40;99.90;;;;;;5025055;28;20125;-68
2023/03/25 08:41:43;;;;;;;;;;;8.40;99.90;;;;;;5024843;28;19929;-68
2023/03/25 08:44:09;;;;;;;;;;;8.40;99.90;;;;;;5024973;28;19959;-67
2023/03/25 08:46:36;;;;;;;;;;;8.30;99.90;;;;;;5024384;28;19988;-67
2023/03/25 08:49:03;;;;;;;;;;;8.30;99.90;;;;;;5024745;28;19927;-68
2023/03/25 08:51:31;;;;;;;;;;;8.30;99.90;;;;;;5024641;28;19972;-68
2023/03/25 08:53:57;;;;;;;;;;;8.30;99.90;;;;;;5024598;28;19949;-68
2023/03/25 08:56:24;;;;;;;;;;;8.30;99.90;;;;;;5024399;28;19992;-68
2023/03/25 08:58:51;;;;;;;;;;;8.30;99.90;;;;;;5024505;28;19980;-67
2023/03/25 09:01:17;;;;;;;;;;;8.30;99.90;;;;;;5023962;28;20024;-68
2023/03/25 09:03:45;;;;;;;;;;;8.40;99.90;;;;;;5024587;28;19988;-68
2023/03/25 09:06:12;;;;;;;;;;;8.60;99.90;;;;;;5023960;28;19960;-68
2023/03/25 09:08:40;;;;;;;;;;;8.60;99.90;;;;;;5024507;28;20012;-68
2023/03/25 09:11:06;;;;;;;;;;;8.70;99.90;;;;;;5024299;28;19943;-67
2023/03/25 09:13:33;;;;;;;;;;;8.80;99.90;;;;;;5024321;28;19984;-68
2023/03/25 09:16:00;;;;;;;;;;;8.90;99.90;;;;;;5024088;28;19922;-68
2023/03/25 09:18:26;;;;;;;;;;;8.90;99.90;;;;;;5024042;28;20004;-68
2023/03/25 09:20:57;;;;;;;;;;;9.00;99.90;;;;;;5023931;28;19953;-68
2023/03/25 09:23:24;;;;;;;;;;;9.10;99.90;;;;;;5024047;28;19921;-68
2023/03/25 09:25:52;;;;;;;;;;;9.10;99.90;;;;;;5023945;28;19922;-68
2023/03/25 09:28:19;;;;;;;;;;;9.30;99.90;;;;;;5024117;28;19921;-69
2023/03/25 09:30:47;;;;;;;;;;;9.40;99.90;;;;;;5022310;28;19937;-68
2023/03/25 09:33:14;;;;;;;;;;;9.50;99.90;;;;;;5023939;28;19922;-68
2023/03/25 09:35:41;;;;;;;;;;;9.60;99.90;;;;;;5023394;28;20142;-68
2023/03/25 09:38:07;;;;;;;;;;;9.60;99.90;;;;;;5023769;28;19921;-68
2023/03/25 09:40:34;;;;;;;;;;;9.70;99.90;;;;;;5023860;28;19953;-68
2023/03/25 09:43:07;;;;;;;;;;;9.80;99.90;;;;;;5023912;28;19921;-68
2023/03/25 09:45:36;;;;;;;;;;;9.70;99.90;;;;;;5023607;28;19922;-68
2023/03/25 09:48:05;;;;;;;;;;;9.70;99.90;;;;;;5023667;28;19922;-68
2023/03/25 09:50:33;;;;;;;;;;;9.70;99.90;;;;;;5023788;28;19926;-68
2023/03/25 09:53:02;;;;;;;;;;;9.70;99.90;;;;;;5023477;28;19989;-68
2023/03/25 09:55:30;;;;;;;;;;;9.70;99.90;;;;;;5023345;28;20213;-68
2023/03/25 09:58:00;;;;;;;;;;;9.70;99.90;;;;;;5023618;28;19921;-67
2023/03/25 10:00:28;;;;;;;;;;;9.80;99.90;;;;;;5023854;28;19952;-68
2023/03/25 10:02:59;;;;;;;;;;;10.00;99.90;;;;;;5023246;28;20205;-68
2023/03/25 10:05:38;;;;;;;;;;;10.20;99.90;;;;;;5023645;28;19921;-67
2023/03/25 10:08:09;;;;;;;;;;;10.20;99.90;;;;;;5023672;28;19988;-68
2023/03/25 10:10:40;;;;;;;;;;;10.20;99.90;;;;;;5023565;28;20098;-68
2023/03/25 10:13:12;;;;;;;;;;;10.20;99.90;;;;;;5027456;28;19945;-68
2023/03/25 10:15:44;;;;;;;;;;;10.20;99.90;;;;;;5027316;28;19927;-67
2023/03/25 10:18:26;;;;;;;;;;;10.30;99.90;;;;;;5027622;28;19922;-68
2023/03/25 10:21:00;;;;;;;;;;;10.30;99.90;;;;;;5027517;28;19926;-67
2023/03/25 10:23:30;;;;;;;;;;;10.40;99.90;;;;;;5027183;28;19922;-68
2023/03/25 10:26:00;;;;;;;;;;;10.40;99.90;;;;;;5027325;28;19922;-68
2023/03/25 10:28:29;;;;;;;;;;;10.40;99.90;;;;;;5027137;28;20184;-68
2023/03/25 10:30:58;;;;;;;;;;;10.30;99.90;;;;;;5025869;28;19927;-68
2023/03/25 10:33:31;;;;;;;;;;;10.20;99.90;;;;;;5027015;28;19925;-68
2023/03/25 10:35:59;;;;;;;;;;;10.10;99.90;;;;;;5026900;28;20135;-68
2023/03/25 10:38:29;;;;;;;;;;;10.00;99.90;;;;;;5027159;28;19964;-68
2023/03/25 10:40:58;;;;;;;;;;;9.90;99.90;;;;;;5026886;28;19921;-69
2023/03/25 10:43:27;;;;;;;;;;;9.70;99.90;;;;;;5027130;28;19928;-67
2023/03/25 10:45:55;;;;;;;;;;;9.20;99.90;;;;;;5026952;28;19925;-67
2023/03/25 10:48:24;;;;;;;;;;;8.50;99.90;;;;;;5027143;28;19989;-67
2023/03/25 10:50:52;;;;;;;;;;;7.90;99.90;;;;;;5026933;28;20256;-67
2023/03/25 10:53:20;;;;;;;;;;;7.70;99.90;;;;;;5026745;28;19927;-67
2023/03/25 10:55:51;;;;;;;;;;;7.70;99.90;;;;;;5026655;28;19988;-68
2023/03/25 10:58:18;;;;;;;;;;;7.70;99.90;;;;;;5026603;28;19925;-67
2023/03/25 11:00:45;;;;;;;;;;;7.90;99.90;;;;;;5026881;28;19921;-68
2023/03/25 11:03:15;;;;;;;;;;;8.20;99.90;;;;;;5026449;28;19976;-69
2023/03/25 11:05:44;;;;;;;;;;;8.40;99.90;;;;;;5026704;28;19989;-68
2023/03/25 11:08:11;;;;;;;;;;;8.50;99.90;;;;;;5026314;28;19956;-68
2023/03/25 11:10:38;;;;;;;;;;;8.50;99.90;;;;;;5026468;28;19934;-67
2023/03/25 11:13:06;;;;;;;;;;;8.40;99.90;;;;;;5026680;28;19964;-68
2023/03/25 11:15:34;;;;;;;;;;;8.50;99.90;;;;;;5026536;28;19922;-68
2023/03/25 11:18:02;;;;;;;;;;;8.40;99.90;;;;;;5026435;28;20097;-68
2023/03/25 11:20:30;;;;;;;;;;;8.30;99.90;;;;;;5026170;28;19927;-68
2023/03/25 11:23:01;;;;;;;;;;;8.10;99.90;;;;;;5024962;28;20128;-67
2023/03/25 11:25:30;;;;;;;;;;;8.00;99.90;;;;;;5026285;28;19980;-68
2023/03/25 11:27:58;;;;;;;;;;;7.80;99.90;;;;;;5026060;28;20022;-68
2023/03/25 11:30:26;;;;;;;;;;;7.80;99.90;;;;;;5025486;28;19921;-67
2023/03/25 11:33:02;;;;;;;;;;;8.00;99.90;;;;;;5026333;28;19921;-68
2023/03/25 11:35:30;;;;;;;;;;;8.20;99.90;;;;;;5026364;28;19972;-68
2023/03/25 11:37:59;;;;;;;;;;;8.20;99.90;;;;;;5025650;28;19985;-67
2023/03/25 11:40:27;;;;;;;;;;;8.20;99.90;;;;;;5025821;28;20210;-67
2023/03/25 11:42:55;;;;;;;;;;;8.20;99.90;;;;;;5025954;28;19925;-67
2023/03/25 11:45:23;;;;;;;;;;;8.10;99.90;;;;;;5025677;28;19992;-68
2023/03/25 11:47:50;;;;;;;;;;;8.00;99.90;;;;;;5025701;28;19989;-67
2023/03/25 11:50:21;;;;;;;;;;;7.90;99.90;;;;;;5025869;28;19921;-67
2023/03/25 11:52:48;;;;;;;;;;;7.90;99.90;;;;;;5025782;28;19928;-67
2023/03/25 11:55:17;;;;;;;;;;;8.00;99.90;;;;;;5025456;28;19921;-68
2023/03/25 11:57:45;;;;;;;;;;;8.20;99.90;;;;;;5025594;28;20297;-68
2023/03/25 12:00:20;;;;;;;;;;;8.50;99.90;;;;;;5025698;28;19956;-68
2023/03/25 12:02:47;;;;;;;;;;;8.80;99.90;;;;;;5025304;28;20276;-67
2023/03/25 12:05:15;;;;;;;;;;;9.00;99.90;;;;;;5025268;28;20213;-68
2023/03/25 12:07:43;;;;;;;;;;;9.20;99.90;;;;;;5025031;28;19929;-68
2023/03/25 12:10:15;;;;;;;;;;;9.50;99.90;;;;;;5025242;28;19929;-68
2023/03/25 12:12:47;;;;;;;;;;;9.80;99.90;;;;;;5025427;28;19943;-68
2023/03/25 12:15:19;;;;;;;;;;;10.10;99.90;;;;;;5025210;28;19928;-68
2023/03/25 12:17:53;;;;;;;;;;;10.20;99.90;;;;;;5024924;28;19921;-68
2023/03/25 12:20:23;;;;;;;;;;;10.30;99.90;;;;;;5025253;28;19921;-68
2023/03/25 12:22:55;;;;;;;;;;;10.40;99.90;;;;;;5017296;28;19956;-68
2023/03/25 12:25:26;;;;;;;;;;;10.30;99.90;;;;;;5025271;28;19921;-69
2023/03/25 12:27:59;;;;;;;;;;;10.40;99.90;;;;;;5024825;28;20221;-68
2023/03/25 12:30:37;;;;;;;;;;;10.40;99.90;;;;;;5025262;28;19922;-68
2023/03/25 12:33:08;;;;;;;;;;;10.40;99.90;;;;;;5025218;28;19964;-68
2023/03/25 12:35:40;;;;;;;;;;;10.40;99.90;;;;;;5024312;28;19921;-68
2023/03/25 12:38:15;;;;;;;;;;;10.40;99.90;;;;;;5024964;28;20108;-68
2023/03/25 12:40:57;;;;;;;;;;;10.40;99.90;;;;;;5025074;28;19929;-68
2023/03/25 12:43:29;;;;;;;;;;;10.30;99.90;;;;;;5024929;28;19956;-68
2023/03/25 12:46:08;;;;;;;;;;;10.10;99.90;;;;;;5024513;28;19927;-68
2023/03/25 12:48:48;;;;;;;;;;;9.80;99.90;;;;;;5024765;28;19984;-68
2023/03/25 12:51:20;;;;;;;;;;;9.60;99.90;;;;;;5024765;28;19955;-70
2023/03/25 12:53:51;;;;;;;;;;;9.20;99.90;;;;;;5024828;28;19977;-68
2023/03/25 12:56:25;;;;;;;;;;;8.80;99.90;;;;;;5024457;28;20121;-68
2023/03/25 12:59:08;;;;;;;;;;;8.50;99.90;;;;;;5024525;28;19929;-68
2023/03/25 13:01:42;;;;;;;;;;;8.50;99.90;;;;;;5024212;28;20197;-68
2023/03/25 13:04:13;;;;;;;;;;;8.50;99.90;;;;;;5024757;28;19988;-68
2023/03/25 13:06:42;;;;;;;;;;;8.50;99.90;;;;;;5024414;28;20082;-68
2023/03/25 13:09:11;;;;;;;;;;;8.60;99.90;;;;;;5024285;28;19921;-68
2023/03/25 13:11:41;;;;;;;;;;;8.70;99.90;;;;;;5024446;28;19921;-68
2023/03/25 13:14:11;;;;;;;;;;;9.00;99.90;;;;;;5024149;28;19922;-68
2023/03/25 13:16:40;;;;;;;;;;;9.30;99.90;;;;;;5023882;28;20090;-68
2023/03/25 13:19:10;;;;;;;;;;;9.60;99.90;;;;;;5023985;28;19993;-68
2023/03/25 13:21:38;;;;;;;;;;;9.90;99.90;;;;;;5024135;28;20202;-68
2023/03/25 13:24:06;;;;;;;;;;;10.20;99.90;;;;;;5024231;28;20016;-68
2023/03/25 13:26:34;;;;;;;;;;;10.60;99.90;;;;;;5023686;28;19961;-68
2023/03/25 13:29:02;;;;;;;;;;;10.80;99.90;;;;;;5023961;28;20228;-68
2023/03/25 13:31:34;;;;;;;;;;;11.00;99.90;;;;;;5023095;28;19984;-68
2023/03/25 13:34:14;;;;;;;;;;;11.00;99.90;;;;;;5024785;28;19929;-68
2023/03/25 13:36:43;;;;;;;;;;;10.70;99.90;;;;;;5022699;28;20213;-68
2023/03/25 13:39:12;;;;;;;;;;;10.30;99.90;;;;;;5023767;28;20223;-68
2023/03/25 13:41:40;;;;;;;;;;;10.00;99.90;;;;;;5023862;28;19936;-68
2023/03/25 13:44:10;;;;;;;;;;;9.30;99.90;;;;;;5024017;28;19984;-68
2023/03/25 13:46:38;;;;;;;;;;;8.50;99.90;;;;;;5022644;28;20221;-68
2023/03/25 13:49:09;;;;;;;;;;;8.00;99.90;;;;;;5023883;28;19921;-68
2023/03/25 13:51:36;;;;;;;;;;;7.80;99.90;;;;;;5023539;28;19921;-68
2023/03/25 13:54:04;;;;;;;;;;;7.70;99.90;;;;;;5023854;28;20121;-67
2023/03/25 13:56:48;;;;;;;;;;;7.70;99.90;;;;;;5023478;28;19989;-68
2023/03/25 13:59:30;;;;;;;;;;;7.70;99.90;;;;;;5023529;28;19921;-68
2023/03/25 14:02:07;;;;;;;;;;;8.10;99.90;;;;;;5020976;28;19921;-68
2023/03/25 14:04:52;;;;;;;;;;;8.60;99.90;;;;;;5023492;28;20159;-67
2023/03/25 14:07:28;;;;;;;;;;;9.10;99.90;;;;;;5023448;28;19922;-68
2023/03/25 14:10:10;;;;;;;;;;;9.60;99.90;;;;;;5023735;28;19929;-68
2023/03/25 14:12:37;;;;;;;;;;;10.00;99.90;;;;;;5021875;28;19925;-68
2023/03/25 14:15:06;;;;;;;;;;;10.20;99.90;;;;;;5023670;28;20082;-68
2023/03/25 14:17:34;;;;;;;;;;;10.60;99.90;;;;;;5023022;28;20141;-68
2023/03/25 14:20:01;;;;;;;;;;;10.80;99.90;;;;;;5023599;28;19960;-68
2023/03/25 14:22:30;;;;;;;;;;;10.90;99.90;;;;;;5023491;28;19989;-68
2023/03/25 14:24:58;;;;;;;;;;;11.00;99.90;;;;;;5023491;28;19996;-69
2023/03/25 14:27:28;;;;;;;;;;;11.20;99.90;;;;;;5023025;28;19964;-68
2023/03/25 14:29:57;;;;;;;;;;;11.60;99.90;;;;;;5023586;28;19945;-68
2023/03/25 14:32:26;;;;;;;;;;;11.50;99.90;;;;;;5022653;28;19975;-67
2023/03/25 14:34:59;;;;;;;;;;;11.60;99.90;;;;;;5023494;28;19960;-68
2023/03/25 14:37:28;;;;;;;;;;;11.70;99.90;;;;;;5023116;28;19922;-68
2023/03/25 14:39:58;;;;;;;;;;;11.60;99.90;;;;;;5023402;28;19929;-67